createdAt,value
2017-11-04T00:02:08.402Z,8.84
2017-11-04T00:04:41.905Z,8.97
2017-11-04T00:07:20.119Z,8.94
2017-11-04T00:09:52.342Z,8.70
2017-11-04T00:12:25.434Z,9.17
2017-11-04T00:14:58.685Z,9.31
2017-11-04T00:17:32.126Z,9.46
2017-11-04T00:20:22.713Z,9.32
2017-11-04T00:22:56.597Z,9.12
2017-11-04T00:25:41.462Z,9.31
2017-11-04T00:28:22.058Z,9.66
2017-11-04T00:30:55.314Z,9.76
2017-11-04T00:33:27.067Z,9.97
2017-11-04T00:36:03.784Z,10.08
2017-11-04T00:38:37.385Z,10.16
2017-11-04T00:41:19.372Z,10.06
2017-11-04T00:43:54.710Z,10.11
2017-11-04T00:46:27.743Z,10.23
2017-11-04T00:49:00.347Z,10.33
2017-11-04T00:51:34.405Z,10.09
2017-11-04T00:54:09.898Z,10.08
2017-11-04T00:56:43.678Z,10.21
2017-11-04T00:59:18.970Z,10.27
2017-11-04T01:01:53.390Z,10.33
2017-11-04T01:04:25.664Z,10.13
2017-11-04T01:07:05.098Z,10.27
2017-11-04T01:09:37.851Z,10.31
2017-11-04T01:12:19.682Z,10.34
2017-11-04T01:14:52.737Z,10.38
2017-11-04T01:17:36.234Z,10.24
2017-11-04T01:20:17.735Z,10.37
2017-11-04T01:22:51.574Z,10.41
2017-11-04T01:25:34.793Z,10.38
2017-11-04T01:28:09.132Z,10.34
2017-11-04T01:30:43.740Z,10.41
2017-11-04T01:33:21.138Z,10.42
2017-11-04T01:35:53.977Z,10.17
2017-11-04T01:38:32.013Z,10.17
2017-11-04T01:41:04.947Z,10.09
2017-11-04T01:43:39.341Z,10.12
2017-11-04T01:46:15.053Z,10.01
2017-11-04T01:48:48.187Z,9.91
2017-11-04T01:51:21.143Z,9.75
2017-11-04T01:53:51.244Z,9.80
2017-11-04T01:56:25.533Z,9.81
2017-11-04T01:58:58.480Z,9.52
2017-11-04T02:01:33.073Z,9.61
2017-11-04T02:04:11.144Z,9.64
2017-11-04T02:06:45.306Z,9.59
2017-11-04T02:09:22.386Z,9.56
2017-11-04T02:12:00.258Z,9.31
2017-11-04T02:14:35.799Z,9.39
2017-11-04T02:17:14.966Z,9.37
2017-11-04T02:19:48.386Z,9.44
2017-11-04T02:22:22.943Z,9.50
2017-11-04T02:25:04.662Z,9.54
2017-11-04T02:27:37.543Z,9.60
2017-11-04T02:30:17.891Z,9.60
2017-11-04T02:32:50.689Z,9.72
2017-11-04T02:35:30.610Z,9.74
2017-11-04T02:38:04.860Z,9.77
2017-11-04T02:40:37.115Z,9.79
2017-11-04T02:43:14.251Z,9.88
2017-11-04T02:45:47.888Z,9.88
2017-11-04T02:48:21.170Z,10.01
2017-11-04T02:50:54.572Z,10.04
2017-11-04T02:53:25.876Z,10.04
2017-11-04T02:55:58.289Z,10.00
2017-11-04T02:58:31.703Z,9.74
2017-11-04T03:01:04.764Z,9.74
2017-11-04T03:03:37.508Z,9.73
2017-11-04T03:06:17.116Z,9.72
2017-11-04T03:08:49.606Z,9.72
2017-11-04T03:11:26.621Z,9.72
2017-11-04T03:14:00.052Z,9.70
2017-11-04T03:16:32.282Z,9.61
2017-11-04T03:19:06.588Z,9.68
2017-11-04T03:21:40.393Z,9.49
2017-11-04T03:24:17.655Z,9.58
2017-11-04T03:26:51.761Z,9.35
2017-11-04T03:29:25.102Z,9.56
2017-11-04T03:31:57.545Z,9.32
2017-11-04T03:34:29.244Z,9.76
2017-11-04T03:37:04.766Z,9.87
2017-11-04T03:39:37.339Z,10.03
2017-11-04T03:42:16.759Z,10.16
2017-11-04T03:44:48.657Z,10.15
2017-11-04T03:47:20.779Z,10.18
2017-11-04T03:49:52.744Z,10.27
2017-11-04T03:52:25.234Z,10.27
2017-11-04T03:54:57.531Z,9.88
2017-11-04T03:57:29.313Z,10.18
2017-11-04T04:00:02.027Z,10.17
2017-11-04T04:02:33.880Z,10.34
2017-11-04T04:05:15.216Z,10.26
2017-11-04T04:07:47.499Z,10.56
2017-11-04T04:10:23.770Z,10.78
2017-11-04T04:12:57.029Z,10.90
2017-11-04T04:15:28.766Z,10.92
2017-11-04T04:18:02.508Z,10.93
2017-11-04T04:20:35.110Z,11.10
2017-11-04T04:23:13.611Z,10.98
2017-11-04T04:25:47.402Z,11.06
2017-11-04T04:28:20.954Z,10.93
2017-11-04T04:30:54.216Z,10.92
2017-11-04T04:33:26.535Z,11.09
2017-11-04T04:36:00.351Z,10.97
2017-11-04T04:38:33.342Z,11.16
2017-11-04T04:41:18.827Z,10.92
2017-11-04T04:43:51.523Z,10.95
2017-11-04T04:46:24.112Z,10.94
2017-11-04T04:48:57.888Z,11.09
2017-11-04T04:51:29.105Z,10.72
2017-11-04T04:53:59.605Z,10.81
2017-11-04T04:56:30.437Z,10.84
2017-11-04T04:59:05.573Z,10.80
2017-11-04T05:01:38.303Z,10.83
2017-11-04T05:04:12.937Z,10.77
2017-11-04T05:06:44.624Z,10.83
2017-11-04T05:09:20.924Z,10.82
2017-11-04T05:11:53.710Z,10.28
2017-11-04T05:14:26.896Z,10.56
2017-11-04T05:16:57.678Z,10.61
2017-11-04T05:19:30.600Z,10.60
2017-11-04T05:22:06.437Z,11.08
2017-11-04T05:24:39.444Z,11.24
2017-11-04T05:27:16.975Z,11.39
2017-11-04T05:29:49.225Z,11.39
2017-11-04T05:32:25.749Z,10.90
2017-11-04T05:34:57.798Z,10.88
2017-11-04T05:37:28.906Z,10.87
2017-11-04T05:39:59.949Z,10.87
2017-11-04T05:42:30.145Z,10.41
2017-11-04T05:45:04.938Z,10.09
2017-11-04T05:47:36.585Z,9.94
2017-11-04T05:50:11.335Z,10.12
2017-11-04T05:52:44.581Z,10.23
2017-11-04T05:55:17.067Z,10.13
2017-11-04T05:57:49.246Z,10.38
2017-11-04T06:00:21.841Z,10.25
2017-11-04T06:02:55.217Z,10.56
2017-11-04T06:05:31.807Z,10.60
2017-11-04T06:08:06.809Z,10.42
2017-11-04T06:10:38.903Z,10.51
2017-11-04T06:13:15.899Z,10.77
2017-11-04T06:15:53.089Z,10.62
2017-11-04T06:18:25.508Z,10.57
2017-11-04T06:21:00.167Z,10.57
2017-11-04T06:23:34.908Z,10.44
2017-11-04T06:26:10.885Z,10.30
2017-11-04T06:28:45.360Z,10.31
2017-11-04T06:31:21.969Z,10.59
2017-11-04T06:33:54.849Z,10.35
2017-11-04T06:36:36.585Z,10.42
2017-11-04T06:39:18.921Z,10.89
2017-11-04T06:41:50.985Z,10.82
2017-11-04T06:44:23.846Z,10.98
2017-11-04T06:46:56.475Z,11.52
2017-11-04T06:49:29.244Z,11.16
2017-11-04T06:52:14.617Z,11.05
2017-11-04T06:54:45.599Z,11.09
2017-11-04T06:57:21.453Z,11.00
2017-11-04T06:59:53.884Z,11.19
2017-11-04T07:02:29.304Z,11.44
2017-11-04T07:05:09.102Z,11.34
2017-11-04T07:07:40.053Z,11.46
2017-11-04T07:10:17.868Z,11.22
2017-11-04T07:12:51.003Z,10.89
2017-11-04T07:15:26.825Z,10.97
2017-11-04T07:17:59.532Z,11.09
2017-11-04T07:20:31.845Z,10.73
2017-11-04T07:23:07.066Z,11.30
2017-11-04T07:25:37.615Z,11.39
2017-11-04T07:28:16.586Z,11.32
2017-11-04T07:30:50.251Z,10.94
2017-11-04T07:33:28.574Z,11.28
2017-11-04T07:36:02.496Z,11.06
2017-11-04T07:38:34.452Z,11.10
2017-11-04T07:41:08.987Z,11.46
2017-11-04T07:43:45.568Z,11.07
2017-11-04T07:46:18.094Z,11.24
2017-11-04T07:48:52.400Z,10.96
2017-11-04T07:51:29.066Z,10.85
2017-11-04T07:54:14.980Z,10.78
2017-11-04T07:56:47.925Z,11.07
2017-11-04T07:59:24.345Z,10.96
2017-11-04T08:01:55.640Z,10.93
2017-11-04T08:04:28.283Z,10.78
2017-11-04T08:07:06.121Z,10.75
2017-11-04T08:09:38.465Z,10.70
2017-11-04T08:12:20.078Z,10.73
2017-11-04T08:14:54.331Z,10.98
2017-11-04T08:17:27.927Z,10.67
2017-11-04T08:20:02.285Z,10.89
2017-11-04T08:22:34.928Z,11.04
2017-11-04T08:25:16.810Z,11.15
2017-11-04T08:27:52.250Z,11.51
2017-11-04T08:30:29.613Z,11.31
2017-11-04T08:33:07.356Z,11.23
2017-11-04T08:35:39.954Z,11.31
2017-11-04T23:52:13.058Z,13.61
2017-11-04T23:54:45.054Z,13.30
2017-11-04T23:57:15.513Z,13.46
2017-11-04T23:59:44.106Z,13.57
